createdAt,value
2016-06-26T00:00:22.052Z,0
2016-06-26T00:01:22.079Z,0
2016-06-26T00:02:21.477Z,0
2016-06-26T00:03:21.480Z,0
2016-06-26T00:04:21.529Z,0
2016-06-26T00:05:21.540Z,0
2016-06-26T00:06:20.965Z,0
2016-06-26T00:07:20.998Z,0
2016-06-26T00:08:22.290Z,0
2016-06-26T00:09:22.291Z,0
2016-06-26T00:10:22.323Z,0
2016-06-26T00:11:20.491Z,0
2016-06-26T00:12:21.146Z,0
2016-06-26T00:13:21.784Z,0
2016-06-26T00:14:21.191Z,0
2016-06-26T00:15:19.996Z,0
2016-06-26T00:16:21.264Z,0
2016-06-26T00:17:21.279Z,0
2016-06-26T00:18:22.574Z,0
2016-06-26T00:19:21.947Z,0
2016-06-26T00:20:22.623Z,0
2016-06-26T00:21:20.786Z,0
2016-06-26T00:22:22.097Z,0
2016-06-26T00:23:22.697Z,0
2016-06-26T00:24:22.103Z,0
2016-06-26T00:25:22.141Z,0
2016-06-26T00:26:21.566Z,0
2016-06-26T00:27:21.573Z,0
2016-06-26T00:28:21.618Z,0
2016-06-26T00:29:20.378Z,0
2016-06-26T00:30:21.652Z,0
2016-06-26T00:31:21.673Z,0
2016-06-26T00:32:22.318Z,0
2016-06-26T00:33:21.761Z,0
2016-06-26T00:34:21.791Z,0
2016-06-26T00:35:21.799Z,0
2016-06-26T00:36:23.077Z,0
2016-06-26T00:37:21.231Z,0
2016-06-26T00:38:22.563Z,0
2016-06-26T00:39:22.563Z,0
2016-06-26T00:40:22.569Z,0
2016-06-26T00:41:21.991Z,0
2016-06-26T00:42:22.632Z,0
2016-06-26T00:43:22.051Z,0
2016-06-26T00:44:21.454Z,0
2016-06-26T00:45:22.715Z,0
2016-06-26T00:46:22.754Z,0
2016-06-26T00:47:22.772Z,0
2016-06-26T00:48:21.596Z,0
2016-06-26T00:49:22.227Z,0
2016-06-26T00:50:23.512Z,0
2016-06-26T00:51:22.283Z,0
2016-06-26T00:52:21.058Z,0
2016-06-26T00:53:21.711Z,0
2016-06-26T00:54:21.157Z,0
2016-06-26T00:55:22.993Z,0
2016-06-26T00:56:22.409Z,0
2016-06-26T00:57:23.025Z,0
2016-06-26T00:58:22.480Z,0
2016-06-26T00:59:22.518Z,0
2016-06-26T01:00:23.178Z,0
2016-06-26T01:01:21.957Z,0
2016-06-26T01:02:22.598Z,0
2016-06-26T01:03:21.381Z,0
2016-06-26T01:04:23.275Z,0
2016-06-26T01:05:23.909Z,0
2016-06-26T01:06:22.080Z,0
2016-06-26T01:07:22.130Z,0
2016-06-26T01:08:22.167Z,0
2016-06-26T01:09:23.414Z,0
2016-06-26T01:10:23.460Z,0
2016-06-26T01:11:23.468Z,0
2016-06-26T01:12:22.867Z,0
2016-06-26T01:13:22.935Z,0
2016-06-26T01:14:23.555Z,0
2016-06-26T01:15:22.333Z,0
2016-06-26T01:16:22.364Z,0
2016-06-26T01:17:24.278Z,0
2016-06-26T01:18:22.443Z,0
2016-06-26T01:19:23.086Z,0
2016-06-26T01:20:24.378Z,0
2016-06-26T01:21:22.516Z,0
2016-06-26T01:22:23.799Z,0
2016-06-26T01:23:23.244Z,0
2016-06-26T01:24:24.451Z,0
2016-06-26T01:25:22.014Z,0
2016-06-26T01:26:23.899Z,0
2016-06-26T01:27:23.319Z,0
2016-06-26T01:28:23.329Z,0
2016-06-26T01:29:23.355Z,0
2016-06-26T01:30:23.999Z,0
2016-06-26T01:31:22.818Z,0
2016-06-26T01:32:24.089Z,0
2016-06-26T01:33:23.497Z,0
2016-06-26T01:34:22.905Z,0
2016-06-26T01:35:22.921Z,0
2016-06-26T01:36:22.344Z,0
2016-06-26T01:37:24.818Z,0
2016-06-26T01:38:23.606Z,0
2016-06-26T01:39:24.898Z,0
2016-06-26T01:40:22.447Z,0
2016-06-26T01:41:23.691Z,0
2016-06-26T01:42:23.747Z,0
2016-06-26T01:43:24.994Z,0
2016-06-26T01:44:24.401Z,0
2016-06-26T01:45:23.827Z,0
2016-06-26T01:46:22.597Z,0
2016-06-26T01:47:23.247Z,0
2016-06-26T01:48:23.894Z,0
2016-06-26T01:49:24.560Z,0
2016-06-26T01:50:25.192Z,0
2016-06-26T01:51:24.594Z,0
2016-06-26T01:52:23.406Z,0
2016-06-26T01:53:24.048Z,0
2016-06-26T01:54:24.695Z,0
2016-06-26T01:55:24.750Z,0
2016-06-26T01:56:23.500Z,0
2016-06-26T01:57:24.171Z,0
2016-06-26T01:58:23.565Z,0
2016-06-26T01:59:24.236Z,0
2016-06-26T02:00:24.863Z,0
2016-06-26T02:01:24.891Z,0
2016-06-26T02:02:23.666Z,0
2016-06-26T02:03:23.094Z,0
2016-06-26T02:04:24.351Z,0
2016-06-26T02:05:24.985Z,0
2016-06-26T02:06:23.813Z,0
2016-06-26T02:07:24.445Z,0
2016-06-26T02:08:23.834Z,0
2016-06-26T02:09:25.744Z,0
2016-06-26T02:10:25.151Z,0
2016-06-26T02:11:24.560Z,0
2016-06-26T02:12:24.563Z,0
2016-06-26T02:13:25.253Z,0
2016-06-26T02:14:24.634Z,0
2016-06-26T02:15:24.660Z,0
2016-06-26T02:16:24.694Z,0
2016-06-26T02:17:25.994Z,0
2016-06-26T02:18:25.985Z,0
2016-06-26T02:19:25.395Z,0
2016-06-26T02:20:25.408Z,0
2016-06-26T02:21:24.825Z,0
2016-06-26T02:22:25.491Z,0
2016-06-26T02:23:25.511Z,0
2016-06-26T02:24:25.543Z,0
2016-06-26T02:25:24.932Z,0
2016-06-26T02:26:26.197Z,0
2016-06-26T02:27:25.621Z,0
2016-06-26T02:28:25.650Z,0
2016-06-26T02:29:25.038Z,0
2016-06-26T02:30:26.353Z,0
2016-06-26T02:31:25.105Z,0
2016-06-26T02:32:25.825Z,0
2016-06-26T02:33:25.191Z,0
2016-06-26T02:34:25.830Z,0
2016-06-26T02:35:26.457Z,0
2016-06-26T02:36:25.245Z,0
2016-06-26T02:37:25.291Z,0
2016-06-26T02:38:24.689Z,0
2016-06-26T02:39:25.333Z,0
2016-06-26T02:40:26.003Z,0
2016-06-26T02:41:25.418Z,0
2016-06-26T02:42:25.420Z,0
2016-06-26T02:43:26.065Z,0
2016-06-26T02:44:26.734Z,0
2016-06-26T02:45:26.115Z,0
2016-06-26T02:46:26.187Z,0
2016-06-26T02:47:24.943Z,0
2016-06-26T02:48:26.231Z,0
2016-06-26T02:49:26.231Z,0
2016-06-26T02:50:25.024Z,0
2016-06-26T02:51:26.908Z,0
2016-06-26T02:52:26.306Z,0
2016-06-26T02:53:26.321Z,0
2016-06-26T02:54:25.739Z,0
2016-06-26T02:55:25.157Z,0
2016-06-26T02:56:24.613Z,0
2016-06-26T02:57:27.089Z,0
2016-06-26T02:58:26.481Z,0
2016-06-26T02:59:25.916Z,0
2016-06-26T03:00:26.537Z,0
2016-06-26T03:01:24.721Z,0
2016-06-26T03:02:26.608Z,0
2016-06-26T03:03:25.382Z,0
2016-06-26T03:04:26.647Z,0
2016-06-26T03:05:27.293Z,0
2016-06-26T03:06:26.090Z,0
2016-06-26T03:07:26.755Z,0
2016-06-26T03:08:26.774Z,0
2016-06-26T03:09:25.589Z,0
2016-06-26T03:10:26.835Z,0
2016-06-26T03:11:26.278Z,0
2016-06-26T03:12:27.495Z,0
2016-06-26T03:13:26.897Z,0
2016-06-26T03:14:27.582Z,0
2016-06-26T03:15:26.329Z,0
2016-06-26T03:16:26.989Z,0
2016-06-26T03:17:27.005Z,0
2016-06-26T03:18:27.042Z,0
2016-06-26T03:19:26.428Z,0
2016-06-26T03:20:26.506Z,0
2016-06-26T03:21:26.512Z,0
2016-06-26T03:22:25.902Z,0
2016-06-26T03:23:26.545Z,0
2016-06-26T03:24:26.578Z,0
2016-06-26T03:25:27.849Z,0
2016-06-26T03:26:27.259Z,0
2016-06-26T03:27:27.270Z,0
2016-06-26T03:28:27.952Z,0
2016-06-26T03:29:27.323Z,0
2016-06-26T03:30:26.726Z,0
2016-06-26T03:31:26.767Z,0
2016-06-26T03:32:26.827Z,0
2016-06-26T03:33:26.825Z,0
2016-06-26T03:34:28.089Z,0
2016-06-26T03:35:27.503Z,0
2016-06-26T03:36:26.919Z,0
2016-06-26T03:37:27.607Z,0
2016-06-26T03:38:28.212Z,0
2016-06-26T03:39:26.999Z,0
2016-06-26T03:40:27.675Z,0
2016-06-26T03:41:27.674Z,0
2016-06-26T03:42:28.304Z,0
2016-06-26T03:43:28.330Z,0
2016-06-26T03:44:27.134Z,0
2016-06-26T03:45:28.415Z,0
2016-06-26T03:46:27.194Z,0
2016-06-26T03:47:27.238Z,0
2016-06-26T03:48:26.618Z,0
2016-06-26T03:49:27.903Z,0
2016-06-26T03:50:27.298Z,0
2016-06-26T03:51:27.946Z,0
2016-06-26T03:52:27.343Z,0
2016-06-26T03:53:27.992Z,0
2016-06-26T03:54:28.015Z,0
2016-06-26T03:55:27.439Z,0
2016-06-26T03:56:26.841Z,0
2016-06-26T03:57:26.882Z,0
2016-06-26T03:58:27.518Z,0
2016-06-26T03:59:28.165Z,0
2016-06-26T04:00:28.812Z,0
2016-06-26T04:01:27.620Z,0
2016-06-26T04:02:26.385Z,0
2016-06-26T04:03:27.666Z,0
2016-06-26T04:04:27.070Z,0
2016-06-26T04:05:27.083Z,0
2016-06-26T04:06:27.722Z,0
2016-06-26T04:07:27.748Z,0
2016-06-26T04:08:27.183Z,0
2016-06-26T04:09:27.806Z,0
2016-06-26T04:10:27.223Z,0
2016-06-26T04:11:27.860Z,0
2016-06-26T04:12:28.506Z,0
2016-06-26T04:13:29.153Z,0
2016-06-26T04:14:29.179Z,0
2016-06-26T04:15:27.344Z,0
2016-06-26T04:16:28.012Z,0
2016-06-26T04:17:28.657Z,0
2016-06-26T04:18:27.449Z,0
2016-06-26T04:19:28.103Z,0
2016-06-26T04:20:28.755Z,0
2016-06-26T04:21:28.153Z,0
2016-06-26T04:22:26.942Z,0
2016-06-26T04:23:28.845Z,0
2016-06-26T04:24:27.621Z,5
2016-06-26T04:25:28.901Z,0
2016-06-26T04:26:28.898Z,0
2016-06-26T04:27:28.935Z,0
2016-06-26T04:28:27.728Z,0
2016-06-26T04:29:28.377Z,0
2016-06-26T04:30:29.620Z,0
2016-06-26T04:31:29.030Z,0
2016-06-26T04:32:29.677Z,5
2016-06-26T04:33:27.255Z,5
2016-06-26T04:34:29.139Z,5
2016-06-26T04:35:27.928Z,5
2016-06-26T04:36:29.792Z,5
2016-06-26T04:37:29.206Z,5
2016-06-26T04:38:28.617Z,5
2016-06-26T04:39:28.614Z,5
2016-06-26T04:40:28.664Z,5
2016-06-26T04:41:29.936Z,5
2016-06-26T04:42:29.954Z,5
2016-06-26T04:43:28.151Z,5
2016-06-26T04:44:29.397Z,5
2016-06-26T04:45:28.191Z,5
2016-06-26T04:46:30.092Z,5
2016-06-26T04:47:28.862Z,5
2016-06-26T04:48:29.501Z,5
2016-06-26T04:49:28.901Z,5
2016-06-26T04:50:28.326Z,5
2016-06-26T04:51:28.993Z,5
2016-06-26T04:52:29.031Z,5
2016-06-26T04:53:29.018Z,5
2016-06-26T04:54:29.030Z,5
2016-06-26T04:55:29.702Z,5
2016-06-26T04:56:29.122Z,5
2016-06-26T04:57:29.729Z,5
2016-06-26T04:58:29.777Z,5
2016-06-26T04:59:29.189Z,5
2016-06-26T05:00:29.212Z,5
2016-06-26T05:01:29.915Z,5
2016-06-26T05:02:29.269Z,5
2016-06-26T05:03:28.665Z,5
2016-06-26T05:04:29.468Z,5
2016-06-26T05:05:29.470Z,5
2016-06-26T05:06:29.478Z,5
2016-06-26T05:07:28.165Z,5
2016-06-26T05:08:30.203Z,5
2016-06-26T05:09:28.840Z,5
2016-06-26T05:10:30.344Z,5
2016-06-26T05:11:29.505Z,5
2016-06-26T05:12:29.626Z,5
2016-06-26T05:13:29.675Z,5
2016-06-26T05:14:28.453Z,5
2016-06-26T05:15:29.059Z,5
2016-06-26T05:16:30.268Z,5
2016-06-26T05:17:30.333Z,5
2016-06-26T05:18:29.717Z,5
2016-06-26T05:19:29.850Z,5
2016-06-26T05:20:29.766Z,5
2016-06-26T05:21:29.945Z,5
2016-06-26T05:22:30.415Z,5
2016-06-26T05:23:30.443Z,5
2016-06-26T05:24:31.129Z,5
2016-06-26T05:25:30.013Z,5
2016-06-26T05:26:31.191Z,5
2016-06-26T05:27:29.970Z,5
2016-06-26T05:28:30.071Z,5
2016-06-26T05:29:29.391Z,5
2016-06-26T05:30:29.487Z,5
2016-06-26T05:31:31.337Z,5
2016-06-26T05:32:30.779Z,5
2016-06-26T05:33:30.829Z,5
2016-06-26T05:34:28.975Z,5
2016-06-26T05:35:30.852Z,10
2016-06-26T05:36:31.022Z,5
2016-06-26T05:37:29.606Z,5
2016-06-26T05:38:30.856Z,5
2016-06-26T05:39:30.905Z,5
2016-06-26T05:40:30.302Z,10
2016-06-26T05:41:29.711Z,15
2016-06-26T05:42:31.001Z,30
2016-06-26T05:43:30.387Z,25
2016-06-26T05:44:29.847Z,20
2016-06-26T05:45:31.113Z,20
2016-06-26T05:46:30.466Z,15
2016-06-26T05:47:31.121Z,10
2016-06-26T05:48:30.530Z,5
2016-06-26T05:49:31.317Z,5
2016-06-26T05:50:31.943Z,5
2016-06-26T05:51:30.609Z,5
2016-06-26T05:52:31.329Z,5
2016-06-26T05:53:31.341Z,5
2016-06-26T05:54:31.300Z,10
2016-06-26T05:55:31.409Z,10
2016-06-26T05:56:30.747Z,10
2016-06-26T05:57:30.759Z,5
2016-06-26T05:58:32.012Z,10
2016-06-26T05:59:30.185Z,15
2016-06-26T06:00:31.467Z,10
2016-06-26T06:01:30.857Z,15
2016-06-26T06:02:32.187Z,10
2016-06-26T06:03:31.565Z,5
2016-06-26T06:04:32.194Z,5
2016-06-26T06:05:30.378Z,10
2016-06-26T06:06:30.398Z,20
2016-06-26T06:07:31.034Z,20
2016-06-26T06:08:31.058Z,15
2016-06-26T06:09:32.406Z,10
2016-06-26T06:10:31.131Z,10
2016-06-26T06:11:31.142Z,10
2016-06-26T06:12:31.176Z,10
2016-06-26T06:13:31.820Z,10
2016-06-26T06:14:31.234Z,10
2016-06-26T06:15:31.257Z,10
2016-06-26T06:16:31.282Z,10
2016-06-26T06:17:30.699Z,10
2016-06-26T06:18:31.330Z,10
2016-06-26T06:19:32.267Z,10
2016-06-26T06:20:30.158Z,15
2016-06-26T06:21:32.107Z,5
2016-06-26T06:22:32.880Z,5
2016-06-26T06:23:32.103Z,10
2016-06-26T06:24:30.871Z,10
2016-06-26T06:25:30.908Z,10
2016-06-26T06:26:31.046Z,5
2016-06-26T06:27:32.796Z,5
2016-06-26T06:28:31.593Z,10
2016-06-26T06:29:32.270Z,10
2016-06-26T06:30:30.422Z,10
2016-06-26T06:31:32.942Z,10
2016-06-26T06:32:32.396Z,5
2016-06-26T06:33:31.187Z,5
2016-06-26T06:34:32.399Z,5
2016-06-26T06:35:31.795Z,5
2016-06-26T06:36:31.821Z,5
2016-06-26T06:37:32.481Z,5
2016-06-26T06:38:31.354Z,5
2016-06-26T06:39:31.366Z,5
2016-06-26T06:40:32.552Z,5
2016-06-26T06:41:32.615Z,5
2016-06-26T06:42:31.379Z,5
2016-06-26T06:43:30.796Z,5
2016-06-26T06:44:32.658Z,5
2016-06-26T06:45:32.086Z,5
2016-06-26T06:46:33.434Z,5
2016-06-26T06:47:31.533Z,5
2016-06-26T06:48:32.160Z,5
2016-06-26T06:49:31.539Z,10
2016-06-26T06:50:32.830Z,15
2016-06-26T06:51:31.617Z,15
2016-06-26T06:52:32.309Z,15
2016-06-26T06:53:32.880Z,15
2016-06-26T06:54:33.647Z,10
2016-06-26T06:55:32.336Z,10
2016-06-26T06:56:33.074Z,10
2016-06-26T06:57:32.370Z,10
2016-06-26T06:58:32.471Z,15
2016-06-26T06:59:31.795Z,15
2016-06-26T07:00:31.849Z,10
2016-06-26T07:01:31.885Z,15
2016-06-26T07:02:31.916Z,15
2016-06-26T07:03:33.264Z,10
2016-06-26T07:04:32.082Z,10
2016-06-26T07:05:33.248Z,10
2016-06-26T07:06:32.118Z,10
2016-06-26T07:07:32.642Z,10
2016-06-26T07:08:32.138Z,10
2016-06-26T07:09:32.699Z,5
2016-06-26T07:10:32.739Z,5
2016-06-26T07:11:32.819Z,5
2016-06-26T07:12:32.786Z,5
2016-06-26T07:13:32.286Z,5
2016-06-26T07:14:32.317Z,5
2016-06-26T07:15:32.321Z,10
2016-06-26T07:16:32.879Z,10
2016-06-26T07:17:33.547Z,5
2016-06-26T07:18:33.599Z,5
2016-06-26T07:19:32.358Z,10
2016-06-26T07:20:32.383Z,10
2016-06-26T07:21:33.853Z,10
2016-06-26T07:22:32.465Z,10
2016-06-26T07:23:33.695Z,10
2016-06-26T07:24:33.311Z,15
2016-06-26T07:25:34.385Z,20
2016-06-26T07:26:33.782Z,30
2016-06-26T07:27:32.563Z,25
2016-06-26T07:28:33.834Z,25
2016-06-26T07:29:33.259Z,25
2016-06-26T07:30:34.018Z,20
2016-06-26T07:31:34.615Z,10
2016-06-26T07:32:33.387Z,10
2016-06-26T07:33:33.375Z,10
2016-06-26T07:34:34.044Z,10
2016-06-26T07:35:33.435Z,10
2016-06-26T07:36:33.449Z,10
2016-06-26T07:37:33.474Z,10
2016-06-26T07:38:34.199Z,10
2016-06-26T07:39:32.290Z,10
2016-06-26T07:40:33.542Z,10
2016-06-26T07:41:34.268Z,10
2016-06-26T07:42:33.610Z,10
2016-06-26T07:43:33.657Z,10
2016-06-26T07:44:34.312Z,10
2016-06-26T07:45:34.368Z,10
2016-06-26T07:46:34.342Z,10
2016-06-26T07:47:35.041Z,10
2016-06-26T07:48:33.810Z,10
2016-06-26T07:49:35.052Z,10
2016-06-26T07:50:34.485Z,10
2016-06-26T07:51:33.918Z,10
2016-06-26T07:52:33.961Z,10
2016-06-26T07:53:34.595Z,10
2016-06-26T07:54:33.326Z,10
2016-06-26T07:55:33.355Z,10
2016-06-26T07:56:35.234Z,10
2016-06-26T07:57:33.425Z,15
2016-06-26T07:58:34.141Z,10
2016-06-26T07:59:34.067Z,10
2016-06-26T08:00:35.354Z,10
2016-06-26T08:01:34.848Z,20
2016-06-26T08:02:34.858Z,20
2016-06-26T08:03:35.458Z,25
2016-06-26T08:04:34.845Z,35
2016-06-26T08:05:34.240Z,45
2016-06-26T08:06:34.262Z,40
2016-06-26T08:07:34.297Z,35
2016-06-26T08:08:35.083Z,20
2016-06-26T08:09:34.350Z,15
2016-06-26T08:10:35.131Z,10
2016-06-26T08:11:35.169Z,10
2016-06-26T08:12:33.910Z,10
2016-06-26T08:13:35.186Z,10
2016-06-26T08:14:34.511Z,10
2016-06-26T08:15:35.810Z,10
2016-06-26T08:16:33.922Z,10
2016-06-26T08:17:34.619Z,10
2016-06-26T08:18:35.265Z,15
2016-06-26T08:19:34.684Z,15
2016-06-26T08:20:34.038Z,15
2016-06-26T08:21:35.313Z,20
2016-06-26T08:22:34.077Z,20
2016-06-26T08:23:34.119Z,15
2016-06-26T08:24:35.398Z,10
2016-06-26T08:25:34.183Z,10
2016-06-26T08:26:35.441Z,10
2016-06-26T08:27:34.859Z,15
2016-06-26T08:28:34.856Z,10
2016-06-26T08:29:36.167Z,10
2016-06-26T08:30:34.294Z,15
2016-06-26T08:31:35.704Z,20
2016-06-26T08:32:35.102Z,20
2016-06-26T08:33:35.096Z,20
2016-06-26T08:34:34.413Z,10
2016-06-26T08:35:35.144Z,10
2016-06-26T08:36:34.451Z,10
2016-06-26T08:37:35.267Z,10
2016-06-26T08:38:34.518Z,10
2016-06-26T08:39:35.274Z,15
2016-06-26T08:40:35.907Z,15
2016-06-26T08:41:34.601Z,15
2016-06-26T08:42:35.310Z,15
2016-06-26T08:43:36.535Z,15
2016-06-26T08:44:34.745Z,15
2016-06-26T08:45:34.721Z,15
2016-06-26T08:46:36.630Z,20
2016-06-26T08:47:36.032Z,20
2016-06-26T08:48:35.453Z,20
2016-06-26T08:49:34.919Z,15
2016-06-26T08:50:35.545Z,10
2016-06-26T08:51:36.115Z,10
2016-06-26T08:52:35.749Z,15
2016-06-26T08:53:36.216Z,20
2016-06-26T08:54:35.145Z,20
2016-06-26T08:55:35.610Z,25
2016-06-26T08:56:35.193Z,30
2016-06-26T08:57:36.310Z,30
2016-06-26T08:58:36.347Z,30
2016-06-26T08:59:35.208Z,30
2016-06-26T09:00:34.574Z,30
2016-06-26T09:01:36.423Z,25
2016-06-26T09:02:36.496Z,25
2016-06-26T09:03:35.242Z,35
2016-06-26T09:04:35.350Z,25
2016-06-26T09:05:35.899Z,30
2016-06-26T09:06:35.987Z,30
2016-06-26T09:07:35.405Z,25
2016-06-26T09:08:36.620Z,20
2016-06-26T09:09:36.026Z,20
2016-06-26T09:10:37.323Z,20
2016-06-26T09:11:36.086Z,20
2016-06-26T09:12:36.114Z,25
2016-06-26T09:13:35.517Z,35
2016-06-26T09:14:37.414Z,30
2016-06-26T09:15:36.803Z,30
2016-06-26T09:16:35.610Z,40
2016-06-26T09:17:35.659Z,45
2016-06-26T09:18:36.276Z,50
2016-06-26T09:19:37.081Z,45
2016-06-26T09:20:36.353Z,55
2016-06-26T09:21:37.066Z,60
2016-06-26T09:22:37.052Z,55
2016-06-26T09:23:36.445Z,40
2016-06-26T09:24:35.862Z,40
2016-06-26T09:25:35.857Z,40
2016-06-26T09:26:37.159Z,45
2016-06-26T09:27:36.599Z,50
2016-06-26T09:28:36.658Z,55
2016-06-26T09:29:37.845Z,50
2016-06-26T09:30:37.263Z,30
2016-06-26T09:31:35.428Z,20
2016-06-26T09:32:36.837Z,30
2016-06-26T09:33:36.845Z,40
2016-06-26T09:34:37.467Z,35
2016-06-26T09:35:37.005Z,45
2016-06-26T09:36:37.497Z,45
2016-06-26T09:37:36.926Z,35
2016-06-26T09:38:37.532Z,30
2016-06-26T09:39:36.908Z,20
2016-06-26T09:40:36.937Z,25
2016-06-26T09:41:37.068Z,30
2016-06-26T09:42:37.110Z,35
2016-06-26T09:43:36.522Z,35
2016-06-26T09:44:36.525Z,30
2016-06-26T09:45:37.134Z,30
2016-06-26T09:46:37.169Z,30
2016-06-26T09:47:37.245Z,30
2016-06-26T09:48:37.894Z,30
2016-06-26T09:49:37.219Z,25
2016-06-26T09:50:37.891Z,25
2016-06-26T09:51:37.895Z,25
2016-06-26T09:52:36.695Z,25
2016-06-26T09:53:37.319Z,25
2016-06-26T09:54:36.824Z,25
2016-06-26T09:55:37.406Z,30
2016-06-26T09:56:38.039Z,20
2016-06-26T09:57:37.576Z,25
2016-06-26T09:58:38.096Z,30
2016-06-26T09:59:38.102Z,20
2016-06-26T10:00:37.623Z,30
2016-06-26T10:01:37.629Z,35
2016-06-26T10:02:38.386Z,40
2016-06-26T10:03:37.654Z,45
2016-06-26T10:04:38.294Z,45
2016-06-26T10:05:38.318Z,35
2016-06-26T10:06:38.390Z,25
2016-06-26T10:07:37.131Z,40
2016-06-26T10:08:38.396Z,30
2016-06-26T10:09:38.447Z,35
2016-06-26T10:10:37.847Z,35
2016-06-26T10:11:37.891Z,30
2016-06-26T10:12:37.904Z,35
2016-06-26T10:13:38.016Z,30
2016-06-26T10:14:38.762Z,30
2016-06-26T10:15:37.421Z,35
2016-06-26T10:16:38.061Z,35
2016-06-26T10:17:38.786Z,25
2016-06-26T10:18:37.529Z,25
2016-06-26T10:19:38.150Z,20
2016-06-26T10:20:38.186Z,20
2016-06-26T10:21:38.837Z,35
2016-06-26T10:22:38.221Z,35
2016-06-26T10:23:38.271Z,35
2016-06-26T10:24:39.500Z,20
2016-06-26T10:25:38.318Z,20
2016-06-26T10:26:39.011Z,35
2016-06-26T10:27:39.011Z,30
2016-06-26T10:28:38.440Z,50
2016-06-26T10:29:37.403Z,50
2016-06-26T10:30:39.112Z,40
2016-06-26T10:31:39.128Z,20
2016-06-26T10:32:38.690Z,20
2016-06-26T10:33:38.746Z,15
2016-06-26T10:34:39.823Z,20
2016-06-26T10:35:39.280Z,20
2016-06-26T10:36:38.789Z,35
2016-06-26T10:37:38.833Z,35
2016-06-26T10:38:38.740Z,40
2016-06-26T10:39:38.846Z,40
2016-06-26T10:40:39.581Z,35
2016-06-26T10:41:39.562Z,65
2016-06-26T10:42:38.861Z,45
2016-06-26T10:43:39.068Z,40
2016-06-26T10:44:39.715Z,55
2016-06-26T10:45:39.731Z,60
2016-06-26T10:46:39.735Z,70
2016-06-26T10:47:37.805Z,50
2016-06-26T10:48:39.743Z,35
2016-06-26T10:49:38.495Z,30
2016-06-26T10:50:39.190Z,30
2016-06-26T10:51:39.830Z,30
2016-06-26T10:52:39.195Z,25
2016-06-26T10:53:39.845Z,40
2016-06-26T10:54:39.866Z,35
2016-06-26T10:55:39.362Z,40
2016-06-26T10:56:39.927Z,40
2016-06-26T10:57:39.561Z,40
2016-06-26T10:58:38.963Z,40
2016-06-26T10:59:38.321Z,40
2016-06-26T11:00:40.057Z,50
2016-06-26T11:01:39.474Z,50
2016-06-26T11:02:39.474Z,50
2016-06-26T11:03:39.587Z,55
2016-06-26T11:04:39.741Z,65
2016-06-26T11:05:39.609Z,40
2016-06-26T11:06:39.724Z,60
2016-06-26T11:07:40.887Z,25
2016-06-26T11:08:39.146Z,25
2016-06-26T11:09:39.178Z,45
2016-06-26T11:10:39.780Z,45
2016-06-26T11:11:41.029Z,25
2016-06-26T11:12:39.214Z,45
2016-06-26T11:13:40.472Z,45
2016-06-26T11:14:40.600Z,50
2016-06-26T11:15:40.026Z,45
2016-06-26T11:16:41.194Z,55
2016-06-26T11:17:40.611Z,65
2016-06-26T11:18:40.043Z,60
2016-06-26T11:19:40.076Z,65
2016-06-26T11:20:39.459Z,70
2016-06-26T11:21:40.121Z,70
2016-06-26T11:22:39.006Z,70
2016-06-26T11:23:39.545Z,55
2016-06-26T11:24:41.084Z,85
2016-06-26T11:25:39.705Z,80
2016-06-26T11:26:41.010Z,80
2016-06-26T11:27:40.324Z,85
2016-06-26T11:28:39.739Z,60
2016-06-26T11:29:41.003Z,45
2016-06-26T11:30:40.415Z,55
2016-06-26T11:31:41.079Z,40
2016-06-26T11:32:39.853Z,30
2016-06-26T11:33:40.519Z,25
2016-06-26T11:34:40.543Z,30
2016-06-26T11:35:41.819Z,60
2016-06-26T11:36:41.249Z,55
2016-06-26T11:37:41.293Z,25
2016-06-26T11:38:40.727Z,30
2016-06-26T11:39:40.725Z,50
2016-06-26T11:40:39.529Z,25
2016-06-26T11:41:40.839Z,50
2016-06-26T11:42:40.830Z,50
2016-06-26T11:43:41.145Z,50
2016-06-26T11:44:40.883Z,55
2016-06-26T11:45:41.549Z,25
2016-06-26T11:46:40.945Z,55
2016-06-26T11:47:41.010Z,30
2016-06-26T11:48:39.807Z,65
2016-06-26T11:49:41.058Z,70
2016-06-26T11:50:40.468Z,30
2016-06-26T11:51:41.170Z,50
2016-06-26T11:52:41.171Z,55
2016-06-26T11:53:41.830Z,55
2016-06-26T11:54:41.217Z,55
2016-06-26T11:55:42.525Z,55
2016-06-26T11:56:41.291Z,60
2016-06-26T11:57:41.965Z,60
2016-06-26T11:58:41.978Z,60
2016-06-26T11:59:42.019Z,25
2016-06-26T12:00:41.457Z,25
2016-06-26T12:01:41.455Z,35
2016-06-26T12:02:41.559Z,40
2016-06-26T12:03:42.175Z,40
2016-06-26T12:04:42.219Z,80
2016-06-26T12:05:41.589Z,60
2016-06-26T12:06:42.299Z,35
2016-06-26T12:07:42.362Z,70
2016-06-26T12:08:41.711Z,85
2016-06-26T12:09:41.933Z,70
2016-06-26T12:10:41.825Z,65
2016-06-26T12:11:42.454Z,70
2016-06-26T12:12:42.678Z,80
2016-06-26T12:13:41.898Z,80
2016-06-26T12:14:42.575Z,85
2016-06-26T12:15:41.960Z,85
2016-06-26T12:16:42.638Z,85
2016-06-26T12:17:42.710Z,95
2016-06-26T12:18:42.043Z,90
2016-06-26T12:19:42.087Z,95
2016-06-26T12:20:42.135Z,85
2016-06-26T12:21:42.155Z,85
2016-06-26T12:22:42.236Z,85
2016-06-26T12:23:41.814Z,80
2016-06-26T12:24:41.689Z,75
2016-06-26T12:25:42.307Z,70
2016-06-26T12:26:43.585Z,80
2016-06-26T12:27:41.774Z,40
2016-06-26T12:28:43.057Z,35
2016-06-26T12:29:43.102Z,25
2016-06-26T12:30:42.464Z,25
2016-06-26T12:31:42.495Z,25
2016-06-26T12:32:42.568Z,75
2016-06-26T12:33:41.993Z,75
2016-06-26T12:34:43.229Z,75
2016-06-26T12:35:42.676Z,25
2016-06-26T12:36:42.703Z,30
2016-06-26T12:37:43.338Z,40
2016-06-26T12:38:43.390Z,45
2016-06-26T12:39:43.462Z,85
2016-06-26T12:40:43.454Z,90
2016-06-26T12:41:43.484Z,85
2016-06-26T12:42:43.511Z,50
2016-06-26T12:43:43.768Z,55
2016-06-26T12:44:44.249Z,55
2016-06-26T12:45:41.783Z,45
2016-06-26T12:46:42.443Z,50
2016-06-26T12:47:43.731Z,90
2016-06-26T12:48:43.763Z,90
2016-06-26T12:49:43.162Z,95
2016-06-26T12:50:42.573Z,55
2016-06-26T12:51:42.652Z,60
2016-06-26T12:52:43.923Z,65
2016-06-26T12:53:43.922Z,60
2016-06-26T12:54:43.362Z,60
2016-06-26T12:55:44.003Z,45
2016-06-26T12:56:43.412Z,45
2016-06-26T12:57:43.521Z,110
2016-06-26T12:58:42.878Z,120
2016-06-26T12:59:44.129Z,115
2016-06-26T13:00:43.562Z,115
2016-06-26T13:01:44.195Z,60
2016-06-26T13:02:43.035Z,110
2016-06-26T13:03:43.034Z,125
2016-06-26T13:04:43.081Z,125
2016-06-26T13:05:44.375Z,120
2016-06-26T13:06:44.501Z,120
2016-06-26T13:07:43.198Z,95
2016-06-26T13:08:43.871Z,125
2016-06-26T13:09:44.731Z,110
2016-06-26T13:10:43.941Z,100
2016-06-26T13:11:43.347Z,100
2016-06-26T13:12:44.630Z,50
2016-06-26T13:13:44.028Z,100
2016-06-26T13:14:43.443Z,90
2016-06-26T13:15:43.476Z,90
2016-06-26T13:16:43.512Z,85
2016-06-26T13:17:44.163Z,85
2016-06-26T13:18:44.847Z,85
2016-06-26T13:19:44.239Z,80
2016-06-26T13:20:44.282Z,50
2016-06-26T13:21:43.075Z,70
2016-06-26T13:22:45.571Z,35
2016-06-26T13:23:45.016Z,40
2016-06-26T13:24:44.409Z,55
2016-06-26T13:25:45.077Z,65
2016-06-26T13:26:44.490Z,125
2016-06-26T13:27:43.941Z,120
2016-06-26T13:28:44.602Z,110
2016-06-26T13:29:45.218Z,100
2016-06-26T13:30:45.877Z,100
2016-06-26T13:31:44.705Z,45
2016-06-26T13:32:44.727Z,40
2016-06-26T13:33:45.454Z,35
2016-06-26T13:34:45.421Z,60
2016-06-26T13:35:44.884Z,85
2016-06-26T13:36:44.873Z,95
2016-06-26T13:37:45.538Z,100
2016-06-26T13:38:45.570Z,55
2016-06-26T13:39:44.956Z,45
2016-06-26T13:40:46.287Z,65
2016-06-26T13:41:46.973Z,60
2016-06-26T13:42:45.104Z,75
2016-06-26T13:43:45.111Z,70
2016-06-26T13:44:45.501Z,120
2016-06-26T13:45:47.337Z,120
2016-06-26T13:46:46.595Z,140
2016-06-26T13:47:45.363Z,130
2016-06-26T13:48:45.413Z,115
2016-06-26T13:49:46.671Z,110
2016-06-26T13:50:45.458Z,90
2016-06-26T13:51:45.424Z,105
2016-06-26T13:52:45.596Z,65
2016-06-26T13:53:45.521Z,30
2016-06-26T13:54:46.159Z,45
2016-06-26T13:55:44.985Z,85
2016-06-26T13:56:46.267Z,90
2016-06-26T13:57:45.683Z,85
2016-06-26T13:58:46.323Z,85
2016-06-26T13:59:46.355Z,85
2016-06-26T14:00:45.792Z,85
2016-06-26T14:01:46.429Z,85
2016-06-26T14:02:45.868Z,85
2016-06-26T14:03:45.880Z,85
2016-06-26T14:04:45.953Z,25
2016-06-26T14:05:46.617Z,25
2016-06-26T14:06:46.626Z,35
2016-06-26T14:07:46.040Z,90
2016-06-26T14:08:46.720Z,65
2016-06-26T14:09:46.758Z,100
2016-06-26T14:10:45.531Z,110
2016-06-26T14:11:46.220Z,115
2016-06-26T14:12:46.874Z,100
2016-06-26T14:13:47.541Z,95
2016-06-26T14:14:45.735Z,90
2016-06-26T14:15:47.033Z,90
2016-06-26T14:16:45.176Z,90
2016-06-26T14:17:47.659Z,90
2016-06-26T14:18:46.505Z,85
2016-06-26T14:19:45.895Z,85
2016-06-26T14:20:47.174Z,85
2016-06-26T14:21:45.974Z,85
2016-06-26T14:22:46.656Z,85
2016-06-26T14:23:46.698Z,95
2016-06-26T14:24:46.687Z,85
2016-06-26T14:25:47.979Z,90
2016-06-26T14:26:46.966Z,95
2016-06-26T14:27:46.236Z,95